sensor_id;sensor_type;location;lat;lon;timestamp;pressure;altitude;pressure_sealevel;temperature;humidity
59971;BME280;45825;45.434;9.116;2023-06-10T00:00:40;99929.84;;;22.44;87.62
59971;BME280;45825;45.434;9.116;2023-06-10T00:03:09;99924.81;;;22.50;86.08
59971;BME280;45825;45.434;9.116;2023-06-10T00:05:35;99931.84;;;22.51;86.33
59971;BME280;45825;45.434;9.116;2023-06-10T00:08:01;99928.16;;;22.52;85.99
59971;BME280;45825;45.434;9.116;2023-06-10T00:10:35;99931.69;;;22.52;85.32
59971;BME280;45825;45.434;9.116;2023-06-10T00:13:02;99932.03;;;22.49;84.02
59971;BME280;45825;45.434;9.116;2023-06-10T00:15:28;99927.81;;;22.46;83.67
59971;BME280;45825;45.434;9.116;2023-06-10T00:17:54;99921.47;;;22.56;83.16
59971;BME280;45825;45.434;9.116;2023-06-10T00:20:20;99923.66;;;22.52;83.65
59971;BME280;45825;45.434;9.116;2023-06-10T00:22:48;99925.31;;;22.45;82.80
59971;BME280;45825;45.434;9.116;2023-06-10T00:25:14;99921.13;;;22.42;82.77
59971;BME280;45825;45.434;9.116;2023-06-10T00:27:40;99917.09;;;22.46;83.44
59971;BME280;45825;45.434;9.116;2023-06-10T00:30:06;99924.66;;;22.51;83.84
59971;BME280;45825;45.434;9.116;2023-06-10T00:32:36;99909.59;;;22.50;83.98
59971;BME280;45825;45.434;9.116;2023-06-10T00:35:02;99910.75;;;22.39;83.37
59971;BME280;45825;45.434;9.116;2023-06-10T00:37:28;99911.59;;;22.40;82.41
59971;BME280;45825;45.434;9.116;2023-06-10T00:39:54;99905.91;;;22.35;82.52
59971;BME280;45825;45.434;9.116;2023-06-10T00:42:19;99906.09;;;22.33;82.74
59971;BME280;45825;45.434;9.116;2023-06-10T00:44:45;99906.41;;;22.30;82.38
59971;BME280;45825;45.434;9.116;2023-06-10T00:47:10;99908.56;;;22.35;82.20
59971;BME280;45825;45.434;9.116;2023-06-10T00:49:35;99911.25;;;22.26;81.84
59971;BME280;45825;45.434;9.116;2023-06-10T00:52:03;99912.78;;;22.21;81.79
59971;BME280;45825;45.434;9.116;2023-06-10T00:54:30;99912.47;;;22.15;82.71
59971;BME280;45825;45.434;9.116;2023-06-10T00:56:56;99907.94;;;22.16;82.57
59971;BME280;45825;45.434;9.116;2023-06-10T00:59:21;99905.59;;;22.21;82.36
59971;BME280;45825;45.434;9.116;2023-06-10T01:01:47;99908.94;;;22.23;81.94
59971;BME280;45825;45.434;9.116;2023-06-10T01:04:13;99905.09;;;22.26;81.92
59971;BME280;45825;45.434;9.116;2023-06-10T01:06:47;99903.75;;;22.22;82.07
59971;BME280;45825;45.434;9.116;2023-06-10T01:09:45;99898.06;;;22.08;82.96
59971;BME280;45825;45.434;9.116;2023-06-10T01:12:19;99902.75;;;22.06;83.31
59971;BME280;45825;45.434;9.116;2023-06-10T01:14:46;99897.06;;;22.09;82.73
59971;BME280;45825;45.434;9.116;2023-06-10T01:17:12;99887.03;;;22.03;80.80
59971;BME280;45825;45.434;9.116;2023-06-10T01:19:37;99893.25;;;21.95;82.83
59971;BME280;45825;45.434;9.116;2023-06-10T01:22:03;99889.06;;;21.93;83.12
59971;BME280;45825;45.434;9.116;2023-06-10T01:24:29;99886.03;;;21.96;82.88
59971;BME280;45825;45.434;9.116;2023-06-10T01:27:00;99888.06;;;22.02;83.10
59971;BME280;45825;45.434;9.116;2023-06-10T01:29:36;99896.41;;;22.07;82.77
59971;BME280;45825;45.434;9.116;2023-06-10T01:32:14;99899.44;;;22.12;82.37
59971;BME280;45825;45.434;9.116;2023-06-10T01:34:42;99891.03;;;22.15;82.47
59971;BME280;45825;45.434;9.116;2023-06-10T01:37:09;99896.25;;;22.17;82.58
59971;BME280;45825;45.434;9.116;2023-06-10T01:39:37;99893.56;;;22.17;82.50
59971;BME280;45825;45.434;9.116;2023-06-10T01:42:04;99899.09;;;22.07;82.97
59971;BME280;45825;45.434;9.116;2023-06-10T01:44:31;99893.56;;;22.00;83.48
59971;BME280;45825;45.434;9.116;2023-06-10T01:46:57;99883.88;;;21.91;83.70
59971;BME280;45825;45.434;9.116;2023-06-10T01:49:22;99896.59;;;21.89;84.18
59971;BME280;45825;45.434;9.116;2023-06-10T01:51:49;99895.06;;;21.78;84.74
59971;BME280;45825;45.434;9.116;2023-06-10T01:54:14;99884.56;;;21.76;84.95
59971;BME280;45825;45.434;9.116;2023-06-10T01:56:39;99889.91;;;21.76;85.02
59971;BME280;45825;45.434;9.116;2023-06-10T01:59:05;99886.88;;;21.88;84.47
59971;BME280;45825;45.434;9.116;2023-06-10T02:01:30;99884.06;;;21.89;84.37
59971;BME280;45825;45.434;9.116;2023-06-10T02:03:55;99890.91;;;21.75;85.06
59971;BME280;45825;45.434;9.116;2023-06-10T02:06:21;99888.53;;;21.72;85.19
59971;BME280;45825;45.434;9.116;2023-06-10T02:08:46;99884.72;;;21.75;85.50
59971;BME280;45825;45.434;9.116;2023-06-10T02:11:11;99884.06;;;21.81;85.27
59971;BME280;45825;45.434;9.116;2023-06-10T02:13:38;99878.19;;;21.77;85.73
59971;BME280;45825;45.434;9.116;2023-06-10T02:16:03;99883.88;;;21.83;85.70
59971;BME280;45825;45.434;9.116;2023-06-10T02:18:29;99874.00;;;21.75;85.62
59971;BME280;45825;45.434;9.116;2023-06-10T02:20:54;99875.34;;;21.71;86.66
59971;BME280;45825;45.434;9.116;2023-06-10T02:23:19;99862.59;;;21.64;87.26
59971;BME280;45825;45.434;9.116;2023-06-10T02:25:46;99866.28;;;21.63;87.80
59971;BME280;45825;45.434;9.116;2023-06-10T02:28:13;99864.28;;;21.57;88.97
59971;BME280;45825;45.434;9.116;2023-06-10T02:30:40;99865.63;;;21.61;88.53
59971;BME280;45825;45.434;9.116;2023-06-10T02:33:06;99870.31;;;21.59;88.54
59971;BME280;45825;45.434;9.116;2023-06-10T02:35:35;99872.63;;;21.62;87.60
59971;BME280;45825;45.434;9.116;2023-06-10T02:38:00;99862.09;;;21.61;88.12
59971;BME280;45825;45.434;9.116;2023-06-10T02:40:25;99871.47;;;21.65;88.10
59971;BME280;45825;45.434;9.116;2023-06-10T02:42:51;99870.50;;;21.74;87.30
59971;BME280;45825;45.434;9.116;2023-06-10T02:45:16;99869.66;;;21.74;87.17
59971;BME280;45825;45.434;9.116;2023-06-10T02:47:41;99865.31;;;21.73;86.58
59971;BME280;45825;45.434;9.116;2023-06-10T02:50:07;99857.94;;;21.75;85.93
59971;BME280;45825;45.434;9.116;2023-06-10T02:52:32;99855.25;;;21.67;85.87
59971;BME280;45825;45.434;9.116;2023-06-10T02:54:58;99859.09;;;21.72;86.00
59971;BME280;45825;45.434;9.116;2023-06-10T02:57:23;99851.41;;;21.69;86.01
59971;BME280;45825;45.434;9.116;2023-06-10T02:59:49;99849.91;;;21.75;86.20
59971;BME280;45825;45.434;9.116;2023-06-10T03:02:14;99853.94;;;21.79;86.21
59971;BME280;45825;45.434;9.116;2023-06-10T03:04:40;99855.09;;;21.76;86.65
59971;BME280;45825;45.434;9.116;2023-06-10T03:07:06;99856.25;;;21.74;86.76
59971;BME280;45825;45.434;9.116;2023-06-10T03:09:32;99858.94;;;21.74;86.91
59971;BME280;45825;45.434;9.116;2023-06-10T03:11:58;99856.41;;;21.72;87.24
59971;BME280;45825;45.434;9.116;2023-06-10T03:14:25;99862.78;;;21.71;87.53
59971;BME280;45825;45.434;9.116;2023-06-10T03:16:50;99859.41;;;21.61;88.42
59971;BME280;45825;45.434;9.116;2023-06-10T03:19:15;99858.94;;;21.57;89.33
59971;BME280;45825;45.434;9.116;2023-06-10T03:21:43;99857.09;;;21.41;90.18
59971;BME280;45825;45.434;9.116;2023-06-10T03:24:09;99853.56;;;21.41;91.85
59971;BME280;45825;45.434;9.116;2023-06-10T03:26:35;99850.72;;;21.34;92.13
59971;BME280;45825;45.434;9.116;2023-06-10T03:29:01;99858.41;;;21.45;91.57
59971;BME280;45825;45.434;9.116;2023-06-10T03:31:26;99852.91;;;21.47;90.74
59971;BME280;45825;45.434;9.116;2023-06-10T03:33:51;99857.91;;;21.50;90.80
59971;BME280;45825;45.434;9.116;2023-06-10T03:36:17;99866.94;;;21.49;91.24
59971;BME280;45825;45.434;9.116;2023-06-10T03:38:42;99861.41;;;21.50;90.83
59971;BME280;45825;45.434;9.116;2023-06-10T03:41:07;99854.91;;;21.61;89.99
59971;BME280;45825;45.434;9.116;2023-06-10T03:43:32;99855.09;;;21.68;89.43
59971;BME280;45825;45.434;9.116;2023-06-10T03:45:58;99859.09;;;21.56;89.74
59971;BME280;45825;45.434;9.116;2023-06-10T03:48:24;99863.09;;;21.60;89.64
59971;BME280;45825;45.434;9.116;2023-06-10T03:50:49;99859.59;;;21.51;90.04
59971;BME280;45825;45.434;9.116;2023-06-10T03:53:16;99863.91;;;21.44;90.70
59971;BME280;45825;45.434;9.116;2023-06-10T03:55:42;99863.59;;;21.47;90.23
59971;BME280;45825;45.434;9.116;2023-06-10T03:58:07;99860.75;;;21.48;90.37
59971;BME280;45825;45.434;9.116;2023-06-10T04:00:32;99866.09;;;21.48;90.35
59971;BME280;45825;45.434;9.116;2023-06-10T04:03:06;99870.13;;;21.44;90.73
59971;BME280;45825;45.434;9.116;2023-06-10T04:05:34;99869.97;;;21.46;90.92
59971;BME280;45825;45.434;9.116;2023-06-10T04:07:59;99871.63;;;21.55;91.20
59971;BME280;45825;45.434;9.116;2023-06-10T04:10:27;99872.66;;;21.46;92.38
59971;BME280;45825;45.434;9.116;2023-06-10T04:12:52;99870.59;;;21.56;91.55
59971;BME280;45825;45.434;9.116;2023-06-10T04:15:17;99879.81;;;21.62;91.37
59971;BME280;45825;45.434;9.116;2023-06-10T04:17:43;99869.63;;;21.66;90.74
59971;BME280;45825;45.434;9.116;2023-06-10T04:20:08;99865.63;;;21.61;90.39
59971;BME280;45825;45.434;9.116;2023-06-10T04:22:35;99878.97;;;21.53;91.61
59971;BME280;45825;45.434;9.116;2023-06-10T04:25:01;99867.13;;;21.56;91.94
59971;BME280;45825;45.434;9.116;2023-06-10T04:27:27;99874.81;;;21.59;91.52
59971;BME280;45825;45.434;9.116;2023-06-10T04:29:53;99871.97;;;21.52;92.00
59971;BME280;45825;45.434;9.116;2023-06-10T04:32:18;99872.47;;;21.56;92.13
59971;BME280;45825;45.434;9.116;2023-06-10T04:34:43;99873.63;;;21.61;91.50
59971;BME280;45825;45.434;9.116;2023-06-10T04:37:09;99868.78;;;21.57;91.94
59971;BME280;45825;45.434;9.116;2023-06-10T04:39:34;99877.16;;;21.54;92.44
59971;BME280;45825;45.434;9.116;2023-06-10T04:41:59;99874.66;;;21.60;92.31
59971;BME280;45825;45.434;9.116;2023-06-10T04:44:25;99874.66;;;21.60;92.68
59971;BME280;45825;45.434;9.116;2023-06-10T04:46:51;99879.66;;;21.63;92.99
59971;BME280;45825;45.434;9.116;2023-06-10T04:49:16;99880.66;;;21.62;92.14
59971;BME280;45825;45.434;9.116;2023-06-10T04:51:42;99878.16;;;21.61;92.84
59971;BME280;45825;45.434;9.116;2023-06-10T04:54:07;99880.81;;;21.61;93.28
59971;BME280;45825;45.434;9.116;2023-06-10T04:56:32;99877.84;;;21.64;93.51
59971;BME280;45825;45.434;9.116;2023-06-10T04:58:58;99880.66;;;21.62;94.23
59971;BME280;45825;45.434;9.116;2023-06-10T05:01:23;99877.31;;;21.60;95.31
59971;BME280;45825;45.434;9.116;2023-06-10T05:03:49;99874.13;;;21.48;96.91
59971;BME280;45825;45.434;9.116;2023-06-10T05:06:14;99877.16;;;21.54;96.18
59971;BME280;45825;45.434;9.116;2023-06-10T05:08:39;99870.94;;;21.53;96.42
59971;BME280;45825;45.434;9.116;2023-06-10T05:11:05;99876.16;;;21.55;96.07
59971;BME280;45825;45.434;9.116;2023-06-10T05:13:31;99874.81;;;21.59;96.28
59971;BME280;45825;45.434;9.116;2023-06-10T05:15:57;99875.47;;;21.61;96.02
59971;BME280;45825;45.434;9.116;2023-06-10T05:18:22;99869.09;;;21.62;95.98
59971;BME280;45825;45.434;9.116;2023-06-10T05:20:48;99871.78;;;21.62;95.68
59971;BME280;45825;45.434;9.116;2023-06-10T05:23:14;99870.47;;;21.66;95.68
59971;BME280;45825;45.434;9.116;2023-06-10T05:25:40;99871.78;;;21.62;95.35
59971;BME280;45825;45.434;9.116;2023-06-10T05:28:06;99869.81;;;21.64;95.03
59971;BME280;45825;45.434;9.116;2023-06-10T05:30:35;99872.63;;;21.62;95.60
59971;BME280;45825;45.434;9.116;2023-06-10T05:33:00;99875.47;;;21.61;96.19
59971;BME280;45825;45.434;9.116;2023-06-10T05:35:25;99870.63;;;21.64;96.42
59971;BME280;45825;45.434;9.116;2023-06-10T05:37:51;99871.50;;;21.73;95.98
59971;BME280;45825;45.434;9.116;2023-06-10T05:40:16;99867.94;;;21.64;95.84
59971;BME280;45825;45.434;9.116;2023-06-10T05:42:41;99871.13;;;21.60;96.95
59971;BME280;45825;45.434;9.116;2023-06-10T05:45:07;99873.97;;;21.58;96.85
59971;BME280;45825;45.434;9.116;2023-06-10T05:47:32;99873.28;;;21.56;97.09
59971;BME280;45825;45.434;9.116;2023-06-10T05:49:58;99873.63;;;21.53;95.80
59971;BME280;45825;45.434;9.116;2023-06-10T05:52:23;99873.97;;;21.50;94.78
59971;BME280;45825;45.434;9.116;2023-06-10T05:54:50;99877.13;;;21.62;94.77
59971;BME280;45825;45.434;9.116;2023-06-10T05:57:15;99877.13;;;21.62;94.83
59971;BME280;45825;45.434;9.116;2023-06-10T05:59:40;99876.88;;;21.73;93.57
59971;BME280;45825;45.434;9.116;2023-06-10T06:02:05;99878.53;;;21.74;93.31
59971;BME280;45825;45.434;9.116;2023-06-10T06:04:31;99879.34;;;21.83;93.55
59971;BME280;45825;45.434;9.116;2023-06-10T06:06:57;99880.38;;;21.82;93.86
59971;BME280;45825;45.434;9.116;2023-06-10T06:09:22;99882.53;;;21.87;94.63
59971;BME280;45825;45.434;9.116;2023-06-10T06:11:47;99882.03;;;21.91;94.90
59971;BME280;45825;45.434;9.116;2023-06-10T06:14:13;99883.34;;;21.96;94.61
59971;BME280;45825;45.434;9.116;2023-06-10T06:16:39;99879.31;;;22.08;94.47
59971;BME280;45825;45.434;9.116;2023-06-10T06:19:05;99887.88;;;22.03;94.79
59971;BME280;45825;45.434;9.116;2023-06-10T06:21:30;99886.03;;;22.12;93.90
59971;BME280;45825;45.434;9.116;2023-06-10T06:23:55;99889.69;;;22.19;92.71
59971;BME280;45825;45.434;9.116;2023-06-10T06:26:21;99884.31;;;22.19;92.29
59971;BME280;45825;45.434;9.116;2023-06-10T06:28:46;99886.84;;;22.21;91.42
59971;BME280;45825;45.434;9.116;2023-06-10T06:31:11;99883.50;;;22.27;91.59
59971;BME280;45825;45.434;9.116;2023-06-10T06:33:37;99892.50;;;22.35;90.64
59971;BME280;45825;45.434;9.116;2023-06-10T06:36:02;99895.03;;;22.28;89.35
59971;BME280;45825;45.434;9.116;2023-06-10T06:38:27;99887.84;;;22.28;89.52
59971;BME280;45825;45.434;9.116;2023-06-10T06:40:53;99886.34;;;22.26;89.49
59971;BME280;45825;45.434;9.116;2023-06-10T06:43:19;99893.72;;;22.24;91.17
59971;BME280;45825;45.434;9.116;2023-06-10T06:45:44;99887.66;;;22.30;90.80
59971;BME280;45825;45.434;9.116;2023-06-10T06:48:13;99888.94;;;22.42;90.46
59971;BME280;45825;45.434;9.116;2023-06-10T06:50:38;99894.53;;;22.32;90.14
59971;BME280;45825;45.434;9.116;2023-06-10T06:53:04;99883.78;;;22.41;89.59
59971;BME280;45825;45.434;9.116;2023-06-10T06:55:29;99888.28;;;22.40;88.78
59971;BME280;45825;45.434;9.116;2023-06-10T06:57:54;99879.94;;;22.43;89.39
59971;BME280;45825;45.434;9.116;2023-06-10T07:00:20;99888.50;;;22.39;88.97
59971;BME280;45825;45.434;9.116;2023-06-10T07:02:46;99892.50;;;22.26;88.23
59971;BME280;45825;45.434;9.116;2023-06-10T07:05:11;99884.81;;;22.31;87.88
59971;BME280;45825;45.434;9.116;2023-06-10T07:07:36;99897.00;;;22.42;87.55
59971;BME280;45825;45.434;9.116;2023-06-10T07:10:02;99898.03;;;22.50;86.82
59971;BME280;45825;45.434;9.116;2023-06-10T07:12:27;99895.47;;;22.56;85.47
59971;BME280;45825;45.434;9.116;2023-06-10T07:14:52;99893.78;;;22.64;86.47
59971;BME280;45825;45.434;9.116;2023-06-10T07:17:17;99896.81;;;22.60;86.21
59971;BME280;45825;45.434;9.116;2023-06-10T07:19:44;99892.13;;;22.63;86.14
59971;BME280;45825;45.434;9.116;2023-06-10T07:22:09;99890.25;;;22.71;85.38
59971;BME280;45825;45.434;9.116;2023-06-10T07:24:35;99886.19;;;22.75;85.91
59971;BME280;45825;45.434;9.116;2023-06-10T07:27:00;99882.53;;;22.77;85.63
59971;BME280;45825;45.434;9.116;2023-06-10T07:29:25;99893.06;;;22.78;83.94
59971;BME280;45825;45.434;9.116;2023-06-10T07:31:50;99891.41;;;22.69;85.73
59971;BME280;45825;45.434;9.116;2023-06-10T07:34:16;99900.97;;;22.71;86.67
59971;BME280;45825;45.434;9.116;2023-06-10T07:36:41;99902.47;;;22.74;85.87
59971;BME280;45825;45.434;9.116;2023-06-10T07:39:07;99897.94;;;22.74;85.43
59971;BME280;45825;45.434;9.116;2023-06-10T07:41:32;99895.56;;;22.80;85.73
59971;BME280;45825;45.434;9.116;2023-06-10T07:43:58;99890.63;;;22.92;84.40
59971;BME280;45825;45.434;9.116;2023-06-10T07:46:23;99898.56;;;22.85;84.92
59971;BME280;45825;45.434;9.116;2023-06-10T07:48:49;99897.75;;;22.76;85.04
59971;BME280;45825;45.434;9.116;2023-06-10T07:51:16;99895.94;;;22.77;84.97
59971;BME280;45825;45.434;9.116;2023-06-10T07:53:41;99890.22;;;22.80;86.25
59971;BME280;45825;45.434;9.116;2023-06-10T07:56:07;99892.25;;;22.69;87.63
59971;BME280;45825;45.434;9.116;2023-06-10T07:58:32;99894.03;;;22.85;87.63
59971;BME280;45825;45.434;9.116;2023-06-10T08:00:57;99888.03;;;22.83;86.74
59971;BME280;45825;45.434;9.116;2023-06-10T08:03:23;99892.53;;;22.83;87.64
59971;BME280;45825;45.434;9.116;2023-06-10T08:05:48;99888.16;;;22.90;87.66
59971;BME280;45825;45.434;9.116;2023-06-10T08:08:13;99883.22;;;22.70;88.86
59971;BME280;45825;45.434;9.116;2023-06-10T08:10:39;99880.66;;;22.77;89.02
59971;BME280;45825;45.434;9.116;2023-06-10T08:13:04;99888.63;;;22.94;88.01
59971;BME280;45825;45.434;9.116;2023-06-10T08:15:29;99885.28;;;22.92;88.04
59971;BME280;45825;45.434;9.116;2023-06-10T08:17:55;99892.63;;;22.98;87.93
59971;BME280;45825;45.434;9.116;2023-06-10T08:20:21;99893.16;;;22.93;89.23
59971;BME280;45825;45.434;9.116;2023-06-10T08:22:46;99888.50;;;22.87;89.60
59971;BME280;45825;45.434;9.116;2023-06-10T08:25:12;99886.69;;;23.11;88.38
59971;BME280;45825;45.434;9.116;2023-06-10T08:27:37;99882.38;;;23.01;88.08
59971;BME280;45825;45.434;9.116;2023-06-10T08:30:02;99892.34;;;23.16;87.15
59971;BME280;45825;45.434;9.116;2023-06-10T08:32:28;99891.97;;;23.27;86.42
59971;BME280;45825;45.434;9.116;2023-06-10T08:34:53;99889.50;;;23.17;85.04
59971;BME280;45825;45.434;9.116;2023-06-10T08:37:18;99896.41;;;23.12;83.77
59971;BME280;45825;45.434;9.116;2023-06-10T08:39:44;99900.66;;;23.06;83.34
59971;BME280;45825;45.434;9.116;2023-06-10T08:42:20;99896.19;;;22.90;84.88
59971;BME280;45825;45.434;9.116;2023-06-10T08:44:48;99901.00;;;23.03;85.13
59971;BME280;45825;45.434;9.116;2023-06-10T08:47:15;99902.22;;;22.92;86.18
59971;BME280;45825;45.434;9.116;2023-06-10T08:49:45;99904.66;;;23.02;86.71
59971;BME280;45825;45.434;9.116;2023-06-10T08:52:19;99902.00;;;23.02;86.92
59971;BME280;45825;45.434;9.116;2023-06-10T08:54:56;99905.97;;;23.14;86.64
59971;BME280;45825;45.434;9.116;2023-06-10T08:57:22;99907.28;;;23.19;86.51
59971;BME280;45825;45.434;9.116;2023-06-10T08:59:49;99908.53;;;23.39;85.63
59971;BME280;45825;45.434;9.116;2023-06-10T09:02:15;99908.16;;;23.42;84.93
59971;BME280;45825;45.434;9.116;2023-06-10T09:04:43;99907.34;;;23.42;83.96
59971;BME280;45825;45.434;9.116;2023-06-10T09:07:10;99906.72;;;23.55;82.35
59971;BME280;45825;45.434;9.116;2023-06-10T09:09:36;99908.00;;;23.44;82.23
59971;BME280;45825;45.434;9.116;2023-06-10T09:12:02;99907.16;;;23.43;82.60
59971;BME280;45825;45.434;9.116;2023-06-10T09:14:27;99897.66;;;23.56;82.47
59971;BME280;45825;45.434;9.116;2023-06-10T09:16:52;99900.34;;;23.56;82.29
59971;BME280;45825;45.434;9.116;2023-06-10T09:19:22;99898.69;;;23.55;83.11
59971;BME280;45825;45.434;9.116;2023-06-10T09:21:48;99902.22;;;23.55;84.69
59971;BME280;45825;45.434;9.116;2023-06-10T09:24:13;99900.94;;;23.66;82.06
59971;BME280;45825;45.434;9.116;2023-06-10T09:26:39;99898.78;;;23.85;81.60
59971;BME280;45825;45.434;9.116;2023-06-10T09:29:07;99901.94;;;23.89;81.17
59971;BME280;45825;45.434;9.116;2023-06-10T09:31:35;99904.00;;;24.02;80.69
59971;BME280;45825;45.434;9.116;2023-06-10T09:34:14;99912.50;;;23.90;79.32
59971;BME280;45825;45.434;9.116;2023-06-10T09:36:41;99913.69;;;23.88;81.42
59971;BME280;45825;45.434;9.116;2023-06-10T09:39:14;99911.03;;;23.88;80.00
59971;BME280;45825;45.434;9.116;2023-06-10T09:41:41;99912.63;;;23.97;80.14
59971;BME280;45825;45.434;9.116;2023-06-10T09:44:19;99904.78;;;24.10;78.86
59971;BME280;45825;45.434;9.116;2023-06-10T09:46:46;99901.13;;;24.03;80.16
59971;BME280;45825;45.434;9.116;2023-06-10T09:49:12;99897.88;;;24.31;79.72
59971;BME280;45825;45.434;9.116;2023-06-10T09:51:37;99897.13;;;24.52;78.96
59971;BME280;45825;45.434;9.116;2023-06-10T09:54:03;99890.16;;;24.43;77.71
59971;BME280;45825;45.434;9.116;2023-06-10T09:56:35;99880.34;;;24.35;77.42
59971;BME280;45825;45.434;9.116;2023-06-10T09:59:01;99886.91;;;24.48;76.26
59971;BME280;45825;45.434;9.116;2023-06-10T10:01:27;99878.94;;;24.54;76.62
59971;BME280;45825;45.434;9.116;2023-06-10T10:03:53;99893.22;;;24.70;76.21
59971;BME280;45825;45.434;9.116;2023-06-10T10:06:20;99885.25;;;24.77;75.11
59971;BME280;45825;45.434;9.116;2023-06-10T10:08:47;99874.66;;;24.75;74.01
59971;BME280;45825;45.434;9.116;2023-06-10T10:11:14;99880.34;;;24.65;74.53
59971;BME280;45825;45.434;9.116;2023-06-10T10:13:41;99879.22;;;24.60;74.51
59971;BME280;45825;45.434;9.116;2023-06-10T10:16:13;99884.63;;;24.60;74.41
59971;BME280;45825;45.434;9.116;2023-06-10T10:18:43;99880.25;;;24.59;74.39
59971;BME280;45825;45.434;9.116;2023-06-10T10:21:12;99884.78;;;24.58;74.90
59971;BME280;45825;45.434;9.116;2023-06-10T10:23:46;99866.09;;;24.35;75.33
59971;BME280;45825;45.434;9.116;2023-06-10T10:26:13;99870.63;;;24.49;74.24
59971;BME280;45825;45.434;9.116;2023-06-10T10:28:46;99874.41;;;24.55;73.15
59971;BME280;45825;45.434;9.116;2023-06-10T10:31:16;99873.00;;;24.59;72.57
59971;BME280;45825;45.434;9.116;2023-06-10T10:36:18;99875.25;;;24.25;71.56
59971;BME280;45825;45.434;9.116;2023-06-10T10:38:45;99871.47;;;24.35;70.62
59971;BME280;45825;45.434;9.116;2023-06-10T10:41:13;99869.69;;;24.27;70.89
59971;BME280;45825;45.434;9.116;2023-06-10T10:43:39;99869.88;;;24.55;68.37
59971;BME280;45825;45.434;9.116;2023-06-10T10:46:12;99865.63;;;24.61;66.00
59971;BME280;45825;45.434;9.116;2023-06-10T10:48:38;99864.91;;;24.74;65.88
59971;BME280;45825;45.434;9.116;2023-06-10T10:51:04;99860.66;;;24.95;64.34
59971;BME280;45825;45.434;9.116;2023-06-10T10:53:29;99856.31;;;25.16;64.23
59971;BME280;45825;45.434;9.116;2023-06-10T10:56:13;99862.63;;;25.23;62.93
59971;BME280;45825;45.434;9.116;2023-06-10T10:58:40;99856.66;;;25.28;62.28
59971;BME280;45825;45.434;9.116;2023-06-10T11:01:13;99854.81;;;24.91;62.16
59971;BME280;45825;45.434;9.116;2023-06-10T11:03:44;99853.00;;;25.14;60.80
59971;BME280;45825;45.434;9.116;2023-06-10T11:06:18;99855.56;;;25.22;61.40
59971;BME280;45825;45.434;9.116;2023-06-10T11:11:19;99854.25;;;24.96;62.26
59971;BME280;45825;45.434;9.116;2023-06-10T11:16:27;99851.06;;;25.29;61.61
59971;BME280;45825;45.434;9.116;2023-06-10T11:18:54;99855.81;;;25.27;61.85
59971;BME280;45825;45.434;9.116;2023-06-10T11:21:19;99858.63;;;25.19;61.80
59971;BME280;45825;45.434;9.116;2023-06-10T11:23:45;99855.69;;;25.14;62.54
59971;BME280;45825;45.434;9.116;2023-06-10T11:31:24;99845.56;;;25.37;61.80
59971;BME280;45825;45.434;9.116;2023-06-10T11:33:57;99835.75;;;25.30;60.90
59971;BME280;45825;45.434;9.116;2023-06-10T11:36:24;99838.97;;;25.40;58.98
59971;BME280;45825;45.434;9.116;2023-06-10T11:38:53;99829.84;;;25.41;60.09
59971;BME280;45825;45.434;9.116;2023-06-10T11:41:20;99832.59;;;25.48;58.86
59971;BME280;45825;45.434;9.116;2023-06-10T11:43:46;99834.47;;;25.47;58.98
59971;BME280;45825;45.434;9.116;2023-06-10T11:46:12;99825.50;;;25.62;58.44
59971;BME280;45825;45.434;9.116;2023-06-10T11:48:38;99826.97;;;25.64;58.98
59971;BME280;45825;45.434;9.116;2023-06-10T11:51:06;99825.56;;;25.25;59.08
59971;BME280;45825;45.434;9.116;2023-06-10T11:53:32;99831.66;;;25.56;59.77
59971;BME280;45825;45.434;9.116;2023-06-10T11:55:58;99819.50;;;25.60;58.87
59971;BME280;45825;45.434;9.116;2023-06-10T11:58:24;99816.22;;;25.64;59.30
59971;BME280;45825;45.434;9.116;2023-06-10T12:00:51;99819.84;;;25.57;58.27
59971;BME280;45825;45.434;9.116;2023-06-10T12:03:18;99816.13;;;25.79;57.97
59971;BME280;45825;45.434;9.116;2023-06-10T12:06:03;99822.56;;;25.57;56.33
59971;BME280;45825;45.434;9.116;2023-06-10T12:08:29;99825.56;;;25.47;57.68
59971;BME280;45825;45.434;9.116;2023-06-10T12:10:55;99822.94;;;25.32;57.88
59971;BME280;45825;45.434;9.116;2023-06-10T12:13:21;99824.59;;;25.55;58.77
59971;BME280;45825;45.434;9.116;2023-06-10T12:15:46;99819.31;;;25.68;57.88
59971;BME280;45825;45.434;9.116;2023-06-10T12:18:19;99818.94;;;26.00;57.92
59971;BME280;45825;45.434;9.116;2023-06-10T12:20:45;99812.28;;;26.24;58.19
59971;BME280;45825;45.434;9.116;2023-06-10T12:23:11;99812.53;;;26.43;56.21
59971;BME280;45825;45.434;9.116;2023-06-10T12:25:36;99805.66;;;26.33;56.75
59971;BME280;45825;45.434;9.116;2023-06-10T12:28:03;99807.06;;;26.22;58.27
59971;BME280;45825;45.434;9.116;2023-06-10T12:30:28;99805.06;;;26.38;58.28
59971;BME280;45825;45.434;9.116;2023-06-10T12:32:55;99806.81;;;26.59;57.51
59971;BME280;45825;45.434;9.116;2023-06-10T12:35:22;99811.88;;;26.83;58.39
59971;BME280;45825;45.434;9.116;2023-06-10T12:37:55;99800.31;;;27.02;57.16
59971;BME280;45825;45.434;9.116;2023-06-10T12:40:27;99805.31;;;27.19;58.19
59971;BME280;45825;45.434;9.116;2023-06-10T12:42:54;99803.44;;;27.06;55.21
59971;BME280;45825;45.434;9.116;2023-06-10T12:45:31;99792.13;;;26.69;55.97
59971;BME280;45825;45.434;9.116;2023-06-10T12:48:07;99793.06;;;26.47;57.20
59971;BME280;45825;45.434;9.116;2023-06-10T12:50:35;99783.22;;;26.19;55.91
59971;BME280;45825;45.434;9.116;2023-06-10T12:53:00;99786.41;;;26.01;56.04
59971;BME280;45825;45.434;9.116;2023-06-10T12:55:26;99782.25;;;25.99;57.28
59971;BME280;45825;45.434;9.116;2023-06-10T12:57:53;99782.53;;;25.82;58.40
59971;BME280;45825;45.434;9.116;2023-06-10T13:00:18;99786.09;;;25.83;58.29
59971;BME280;45825;45.434;9.116;2023-06-10T13:02:44;99776.22;;;25.97;58.55
59971;BME280;45825;45.434;9.116;2023-06-10T13:05:09;99773.06;;;25.86;58.12
59971;BME280;45825;45.434;9.116;2023-06-10T13:07:35;99782.81;;;25.87;58.38
59971;BME280;45825;45.434;9.116;2023-06-10T13:10:00;99772.56;;;25.76;57.92